createdAt,value
2019-06-27T00:00:31.645Z,1019.75
2019-06-27T00:01:31.583Z,1019.77
2019-06-27T00:02:31.543Z,1019.77
2019-06-27T00:03:31.527Z,1019.81
2019-06-27T00:04:31.494Z,1019.79
2019-06-27T00:05:31.518Z,1019.77
2019-06-27T00:06:31.444Z,1019.82
2019-06-27T00:07:37.892Z,1019.79
2019-06-27T00:08:31.394Z,1019.84
2019-06-27T00:09:31.374Z,1019.85
2019-06-27T00:10:34.221Z,1019.87
2019-06-27T00:11:31.377Z,1019.82
2019-06-27T00:12:31.301Z,1019.81
2019-06-27T00:13:31.298Z,1019.85
2019-06-27T00:14:31.257Z,1019.86
2019-06-27T00:15:31.222Z,1019.86
2019-06-27T00:16:31.274Z,1019.89
2019-06-27T00:17:31.222Z,1019.85
2019-06-27T00:18:31.153Z,1019.84
2019-06-27T00:19:31.124Z,1019.86
2019-06-27T00:20:31.107Z,1019.90
2019-06-27T00:21:31.114Z,1019.88
2019-06-27T00:22:31.060Z,1019.91
2019-06-27T00:23:31.024Z,1019.90
2019-06-27T00:24:31.005Z,1019.89
2019-06-27T00:25:31.017Z,1019.95
2019-06-27T00:26:30.953Z,1019.96
2019-06-27T00:27:30.927Z,1019.90
2019-06-27T00:28:30.896Z,1019.91
2019-06-27T00:29:30.929Z,1019.98
2019-06-27T00:30:30.848Z,1019.93
2019-06-27T00:31:30.823Z,1019.92
2019-06-27T00:32:30.834Z,1019.95
2019-06-27T00:33:30.811Z,1019.96
2019-06-27T00:34:30.752Z,1019.92
2019-06-27T00:35:30.728Z,1019.99
2019-06-27T00:36:30.733Z,1019.97
2019-06-27T00:37:30.676Z,1019.98
2019-06-27T00:38:30.649Z,1020.02
2019-06-27T00:39:30.668Z,1020.03
2019-06-27T00:40:30.639Z,1020.04
2019-06-27T00:41:30.576Z,1020.08
2019-06-27T00:42:30.562Z,1020.02
2019-06-27T00:43:30.580Z,1020.07
2019-06-27T00:44:30.498Z,1020.05
2019-06-27T00:45:30.550Z,1020.04
2019-06-27T00:46:30.446Z,1020.06
2019-06-27T00:47:30.426Z,1020.02
2019-06-27T00:48:30.392Z,1020.03
2019-06-27T00:49:30.377Z,1020.01
2019-06-27T00:50:30.400Z,1020.04
2019-06-27T00:51:30.319Z,1020.04
2019-06-27T00:52:30.311Z,1020.07
2019-06-27T00:53:30.277Z,1020.10
2019-06-27T00:54:30.241Z,1020.13
2019-06-27T00:55:30.261Z,1020.14
2019-06-27T00:56:30.239Z,1020.14
2019-06-27T00:57:30.171Z,1020.15
2019-06-27T00:58:30.142Z,1020.20
2019-06-27T00:59:30.117Z,1020.19
2019-06-27T01:00:30.093Z,1020.22
2019-06-27T01:01:30.107Z,1020.15
2019-06-27T01:02:30.089Z,1020.13
2019-06-27T01:03:30.009Z,1020.17
2019-06-27T01:04:29.989Z,1020.22
2019-06-27T01:05:29.964Z,1020.15
2019-06-27T01:06:29.979Z,1020.14
2019-06-27T01:07:29.997Z,1020.23
2019-06-27T01:08:29.884Z,1020.17
2019-06-27T01:09:29.860Z,1020.16
2019-06-27T01:10:29.840Z,1020.19
2019-06-27T01:11:29.811Z,1020.16
2019-06-27T01:12:29.848Z,1020.25
2019-06-27T01:13:29.760Z,1020.21
2019-06-27T01:14:29.742Z,1020.23
2019-06-27T01:15:29.707Z,1020.24
2019-06-27T01:16:29.697Z,1020.25
2019-06-27T01:17:29.711Z,1020.27
2019-06-27T01:18:29.625Z,1020.26
2019-06-27T01:19:29.603Z,1020.30
2019-06-27T01:20:29.597Z,1020.25
2019-06-27T01:21:29.594Z,1020.32
2019-06-27T01:22:29.529Z,1020.28
2019-06-27T01:23:29.499Z,1020.22
2019-06-27T01:24:29.474Z,1020.27
2019-06-27T01:25:29.490Z,1020.26
2019-06-27T01:26:29.426Z,1020.39
2019-06-27T01:27:30.569Z,1020.29
2019-06-27T01:28:29.372Z,1020.33
2019-06-27T01:29:29.393Z,1020.33
2019-06-27T01:30:29.321Z,1020.31
2019-06-27T01:31:29.295Z,1020.36
2019-06-27T01:32:29.274Z,1020.31
2019-06-27T01:33:29.245Z,1020.32
2019-06-27T01:34:29.260Z,1020.32
2019-06-27T01:35:29.192Z,1020.44
2019-06-27T01:36:29.170Z,1020.36
2019-06-27T01:37:29.194Z,1020.36
2019-06-27T01:38:29.121Z,1020.38
2019-06-27T01:39:29.096Z,1020.40
2019-06-27T01:40:29.069Z,1020.46
2019-06-27T01:41:29.084Z,1020.47
2019-06-27T01:42:29.020Z,1020.47
2019-06-27T01:43:28.995Z,1020.54
2019-06-27T01:44:28.967Z,1020.42
2019-06-27T01:45:28.985Z,1020.43
2019-06-27T01:46:28.920Z,1020.54
2019-06-27T01:47:28.887Z,1020.59
2019-06-27T01:48:28.904Z,1020.48
2019-06-27T01:49:28.858Z,1020.49
2019-06-27T01:50:28.805Z,1020.54
2019-06-27T01:51:28.798Z,1020.53
2019-06-27T01:52:28.758Z,1020.50
2019-06-27T01:53:28.769Z,1020.52
2019-06-27T01:54:28.714Z,1020.47
2019-06-27T01:55:28.679Z,1020.52
2019-06-27T01:56:28.654Z,1020.50
2019-06-27T01:57:45.298Z,1020.49
2019-06-27T01:58:28.634Z,1020.47
2019-06-27T01:59:28.575Z,1020.54
2019-06-27T02:00:28.550Z,1020.49
2019-06-27T02:01:28.522Z,1020.53
2019-06-27T02:02:28.495Z,1020.53
2019-06-27T02:03:28.563Z,1020.55
2019-06-27T02:04:28.491Z,1020.48
2019-06-27T02:05:28.469Z,1020.51
2019-06-27T02:06:28.409Z,1020.58
2019-06-27T02:07:28.374Z,1020.51
2019-06-27T02:08:28.342Z,1020.53
2019-06-27T02:09:28.314Z,1020.51
2019-06-27T02:10:28.345Z,1020.53
2019-06-27T02:11:28.275Z,1020.56
2019-06-27T02:12:28.236Z,1020.56
2019-06-27T02:13:28.220Z,1020.54
2019-06-27T02:14:28.192Z,1020.58
2019-06-27T02:15:28.202Z,1020.54
2019-06-27T02:16:28.184Z,1020.52
2019-06-27T02:17:28.106Z,1020.58
2019-06-27T02:18:28.085Z,1020.54
2019-06-27T02:19:28.063Z,1020.52
2019-06-27T02:20:28.076Z,1020.55
2019-06-27T02:21:28.000Z,1020.57
2019-06-27T02:22:27.977Z,1020.57
2019-06-27T02:23:27.948Z,1020.58
2019-06-27T02:24:27.971Z,1020.59
2019-06-27T02:25:27.941Z,1020.60
2019-06-27T02:26:27.873Z,1020.65
2019-06-27T02:27:27.844Z,1020.69
2019-06-27T02:28:27.819Z,1020.67
2019-06-27T02:29:27.857Z,1020.67
2019-06-27T02:30:27.821Z,1020.59
2019-06-27T02:31:27.742Z,1020.58
2019-06-27T02:32:27.766Z,1020.65
2019-06-27T02:33:27.688Z,1020.64
2019-06-27T02:34:27.660Z,1020.65
2019-06-27T02:35:27.633Z,1020.69
2019-06-27T02:36:27.608Z,1020.72
2019-06-27T02:37:27.639Z,1020.72
2019-06-27T02:38:27.553Z,1020.69
2019-06-27T02:39:27.528Z,1020.70
2019-06-27T02:40:27.505Z,1020.72
2019-06-27T02:41:27.523Z,1020.75
2019-06-27T02:42:27.468Z,1020.76
2019-06-27T02:43:27.428Z,1020.74
2019-06-27T02:44:27.553Z,1020.74
2019-06-27T02:45:27.373Z,1020.74
2019-06-27T02:46:27.355Z,1020.81
2019-06-27T02:47:27.323Z,1020.77
2019-06-27T02:48:27.331Z,1020.76
2019-06-27T02:49:29.936Z,1020.78
2019-06-27T02:50:27.242Z,1020.78
2019-06-27T02:51:27.256Z,1020.71
2019-06-27T02:52:27.196Z,1020.73
2019-06-27T02:53:27.184Z,1020.74
2019-06-27T02:54:27.176Z,1020.72
2019-06-27T02:55:27.107Z,1020.73
2019-06-27T02:56:27.126Z,1020.67
2019-06-27T02:57:27.057Z,1020.66
2019-06-27T02:58:31.639Z,1020.68
2019-06-27T02:59:27.017Z,1020.70
2019-06-27T03:00:26.991Z,1020.68
2019-06-27T03:01:26.967Z,1020.71
2019-06-27T03:02:26.921Z,1020.68
2019-06-27T03:03:26.949Z,1020.72
2019-06-27T03:04:26.869Z,1020.76
2019-06-27T03:05:26.895Z,1020.83
2019-06-27T03:06:26.815Z,1020.74
2019-06-27T03:07:26.792Z,1020.72
2019-06-27T03:08:26.824Z,1020.72
2019-06-27T03:09:26.738Z,1020.71
2019-06-27T03:10:26.706Z,1020.71
2019-06-27T03:11:26.689Z,1020.70
2019-06-27T03:12:26.696Z,1020.73
2019-06-27T03:13:26.671Z,1020.64
2019-06-27T03:14:26.604Z,1020.78
2019-06-27T03:15:26.577Z,1020.74
2019-06-27T03:16:26.551Z,1020.68
2019-06-27T03:17:26.563Z,1020.64
2019-06-27T03:18:26.501Z,1020.72
2019-06-27T03:19:26.477Z,1020.73
2019-06-27T03:20:26.494Z,1020.76
2019-06-27T03:21:26.420Z,1020.77
2019-06-27T03:22:26.389Z,1020.77
2019-06-27T03:23:26.367Z,1020.75
2019-06-27T03:24:26.343Z,1020.78
2019-06-27T03:25:26.358Z,1020.81
2019-06-27T03:26:26.285Z,1020.83
2019-06-27T03:27:26.265Z,1020.86
2019-06-27T03:28:26.271Z,1020.82
2019-06-27T03:29:26.213Z,1020.81
2019-06-27T03:30:26.179Z,1020.78
2019-06-27T03:31:26.204Z,1020.84
2019-06-27T03:32:26.129Z,1020.84
2019-06-27T03:33:26.146Z,1020.87
2019-06-27T03:34:26.087Z,1020.89
2019-06-27T03:35:26.051Z,1020.90
2019-06-27T03:36:26.033Z,1020.89
2019-06-27T03:37:26.003Z,1020.91
2019-06-27T03:38:26.025Z,1020.93
2019-06-27T03:39:25.950Z,1020.89
2019-06-27T03:40:25.925Z,1020.94
2019-06-27T03:41:25.985Z,1020.89
2019-06-27T03:42:25.863Z,1021.00
2019-06-27T03:43:25.844Z,1021.00
2019-06-27T03:44:25.819Z,1021.04
2019-06-27T03:45:25.791Z,1021.02
2019-06-27T03:46:25.806Z,1021.06
2019-06-27T03:47:25.753Z,1021.12
2019-06-27T03:48:25.709Z,1020.99
2019-06-27T03:49:25.684Z,1021.06
2019-06-27T03:50:25.658Z,1021.04
2019-06-27T03:51:25.681Z,1021.00
2019-06-27T03:52:25.604Z,1021.27
2019-06-27T03:53:25.589Z,1021.07
2019-06-27T03:54:25.552Z,1021.08
2019-06-27T03:55:25.536Z,1021.04
2019-06-27T03:56:25.545Z,1021.10
2019-06-27T03:57:25.471Z,1021.09
2019-06-27T03:58:25.457Z,1021.09
2019-06-27T03:59:25.468Z,1021.12
2019-06-27T04:00:25.446Z,1021.13
2019-06-27T04:01:25.378Z,1021.13
2019-06-27T04:02:25.347Z,1021.11
2019-06-27T04:03:25.322Z,1021.19
2019-06-27T04:04:25.295Z,1021.14
2019-06-27T04:05:25.313Z,1021.15
2019-06-27T04:06:25.238Z,1021.22
2019-06-27T04:07:25.254Z,1021.24
2019-06-27T04:08:25.197Z,1021.24
2019-06-27T04:09:25.161Z,1021.23
2019-06-27T04:10:25.174Z,1021.19
2019-06-27T04:11:25.106Z,1021.25
2019-06-27T04:12:25.080Z,1021.19
2019-06-27T04:13:25.057Z,1021.19
2019-06-27T04:14:25.037Z,1021.18
2019-06-27T04:15:25.046Z,1021.19
2019-06-27T04:16:25.042Z,1021.16
2019-06-27T04:17:24.990Z,1021.23
2019-06-27T04:18:24.921Z,1021.23
2019-06-27T04:19:24.897Z,1021.28
2019-06-27T04:20:24.915Z,1021.18
2019-06-27T04:21:24.843Z,1021.20
2019-06-27T04:22:24.830Z,1021.20
2019-06-27T04:23:24.803Z,1021.21
2019-06-27T04:24:24.777Z,1021.24
2019-06-27T04:25:24.786Z,1021.32
2019-06-27T04:26:24.732Z,1021.28
2019-06-27T04:27:24.741Z,1021.29
2019-06-27T04:28:24.664Z,1021.24
2019-06-27T04:29:33.428Z,1021.34
2019-06-27T04:30:24.692Z,1021.28
2019-06-27T04:31:24.586Z,1021.29
2019-06-27T04:32:24.561Z,1021.27
2019-06-27T04:33:24.547Z,1021.31
2019-06-27T04:34:24.512Z,1021.23
2019-06-27T04:35:24.526Z,1021.24
2019-06-27T04:36:24.475Z,1021.24
2019-06-27T04:37:24.479Z,1021.25
2019-06-27T04:38:24.419Z,1021.22
2019-06-27T04:39:24.398Z,1021.21
2019-06-27T04:40:24.402Z,1021.37
2019-06-27T04:41:24.368Z,1021.30
2019-06-27T04:42:24.312Z,1021.31
2019-06-27T04:43:33.541Z,1021.43
2019-06-27T04:44:24.251Z,1021.33
2019-06-27T04:45:24.280Z,1021.33
2019-06-27T04:46:26.978Z,1021.33
2019-06-27T04:47:24.175Z,1021.34
2019-06-27T04:48:24.149Z,1021.47
2019-06-27T04:49:24.172Z,1021.32
2019-06-27T04:50:24.151Z,1021.28
2019-06-27T04:51:24.074Z,1021.64
2019-06-27T04:52:24.044Z,1021.31
2019-06-27T04:53:24.049Z,1021.32
2019-06-27T04:54:24.005Z,1021.49
2019-06-27T04:55:24.049Z,1021.37
2019-06-27T04:56:23.945Z,1021.36
2019-06-27T04:57:23.919Z,1021.30
2019-06-27T04:58:23.898Z,1021.28
2019-06-27T04:59:23.932Z,1021.30
2019-06-27T05:00:23.842Z,1021.28
2019-06-27T05:01:23.811Z,1021.32
2019-06-27T05:02:23.783Z,1021.35
2019-06-27T05:03:23.761Z,1021.26
2019-06-27T05:04:24.561Z,1021.42
2019-06-27T05:05:23.710Z,1021.32
2019-06-27T05:06:23.680Z,1021.39
2019-06-27T05:07:23.661Z,1021.29
2019-06-27T05:08:23.629Z,1021.32
2019-06-27T05:09:23.642Z,1021.32
2019-06-27T05:10:23.627Z,1021.33
2019-06-27T05:11:23.579Z,1021.24
2019-06-27T05:12:23.529Z,1021.31
2019-06-27T05:13:23.546Z,1021.22
2019-06-27T05:14:23.473Z,1021.33
2019-06-27T05:15:23.450Z,1021.28
2019-06-27T05:16:23.421Z,1021.26
2019-06-27T05:17:23.443Z,1021.32
2019-06-27T05:18:23.382Z,1021.34
2019-06-27T05:19:23.346Z,1021.36
2019-06-27T05:20:23.353Z,1021.28
2019-06-27T05:21:23.299Z,1021.23
2019-06-27T05:22:23.313Z,1021.23
2019-06-27T05:23:23.280Z,1021.26
2019-06-27T05:24:23.214Z,1021.26
2019-06-27T05:25:23.191Z,1021.20
2019-06-27T05:26:23.160Z,1021.28
2019-06-27T05:27:23.179Z,1021.25
2019-06-27T05:28:23.149Z,1021.20
2019-06-27T05:29:23.128Z,1021.20
2019-06-27T05:30:23.060Z,1021.24
2019-06-27T05:31:23.032Z,1021.24
2019-06-27T05:32:23.042Z,1021.25
2019-06-27T05:33:22.981Z,1021.26
2019-06-27T05:34:22.999Z,1021.26
2019-06-27T05:35:22.972Z,1021.29
2019-06-27T05:36:22.906Z,1021.32
2019-06-27T05:37:22.888Z,1021.35
2019-06-27T05:38:22.853Z,1021.38
2019-06-27T05:39:22.871Z,1021.28
2019-06-27T05:40:22.804Z,1021.31
2019-06-27T05:41:22.820Z,1021.46
2019-06-27T05:42:22.752Z,1021.38
2019-06-27T05:43:22.726Z,1021.44
2019-06-27T05:44:22.701Z,1021.25
2019-06-27T05:45:22.675Z,1021.32
2019-06-27T05:46:22.697Z,1021.32
2019-06-27T05:47:22.665Z,1021.27
2019-06-27T05:48:22.598Z,1021.29
2019-06-27T05:49:22.575Z,1021.33
2019-06-27T05:50:22.549Z,1021.39
2019-06-27T05:51:22.566Z,1021.42
2019-06-27T05:52:22.501Z,1021.40
2019-06-27T05:53:22.530Z,1021.43
2019-06-27T05:54:22.466Z,1021.37
2019-06-27T05:55:22.425Z,1021.54
2019-06-27T05:56:22.405Z,1021.51
2019-06-27T05:57:22.400Z,1021.64
2019-06-27T05:58:22.430Z,1021.50
2019-06-27T05:59:22.334Z,1021.76
2019-06-27T06:00:28.344Z,1021.56
2019-06-27T06:01:22.286Z,1021.55
2019-06-27T06:02:22.299Z,1021.53
2019-06-27T06:03:22.226Z,1021.57
2019-06-27T06:04:24.086Z,1021.53
2019-06-27T06:05:22.173Z,1021.62
2019-06-27T06:06:22.139Z,1021.64
2019-06-27T06:07:22.114Z,1021.64
2019-06-27T06:08:22.134Z,1021.52
2019-06-27T06:09:22.061Z,1021.55
2019-06-27T06:10:22.037Z,1021.51
2019-06-27T06:11:22.016Z,1021.56
2019-06-27T06:12:22.027Z,1021.53
2019-06-27T06:13:21.971Z,1021.52
2019-06-27T06:14:21.982Z,1021.54
2019-06-27T06:15:21.912Z,1021.52
2019-06-27T06:16:21.902Z,1021.55
2019-06-27T06:17:21.856Z,1021.45
2019-06-27T06:18:21.873Z,1021.53
2019-06-27T06:19:21.805Z,1021.46
2019-06-27T06:20:21.785Z,1021.45
2019-06-27T06:21:21.757Z,1021.51
2019-06-27T06:22:21.731Z,1021.55
2019-06-27T06:23:21.763Z,1021.64
2019-06-27T06:24:21.715Z,1021.56
2019-06-27T06:25:21.648Z,1021.69
2019-06-27T06:26:21.669Z,1021.57
2019-06-27T06:27:21.600Z,1021.47
2019-06-27T06:28:22.181Z,1021.59
2019-06-27T06:29:21.586Z,1021.58
2019-06-27T06:30:21.522Z,1021.66
2019-06-27T06:31:22.077Z,1021.68
2019-06-27T06:32:21.470Z,1021.57
2019-06-27T06:33:22.081Z,1021.50
2019-06-27T06:34:21.460Z,1021.50
2019-06-27T06:35:21.393Z,1021.42
2019-06-27T06:36:21.363Z,1021.53
2019-06-27T06:37:21.377Z,1021.44
2019-06-27T06:38:21.364Z,1021.48
2019-06-27T06:39:21.323Z,1021.43
2019-06-27T06:40:21.258Z,1021.48
2019-06-27T06:41:21.235Z,1021.47
2019-06-27T06:42:21.307Z,1021.47
2019-06-27T06:43:21.196Z,1021.51
2019-06-27T06:44:21.155Z,1021.55
2019-06-27T06:45:21.129Z,1021.51
2019-06-27T06:46:21.111Z,1021.62
2019-06-27T06:47:21.173Z,1021.48
2019-06-27T06:48:21.111Z,1021.61
2019-06-27T06:49:21.020Z,1021.47
2019-06-27T06:50:23.402Z,1021.57
2019-06-27T06:51:20.972Z,1021.49
2019-06-27T06:52:20.945Z,1021.63
2019-06-27T06:53:24.009Z,1021.55
2019-06-27T06:54:20.895Z,1021.51
2019-06-27T06:55:20.867Z,1021.53
2019-06-27T06:56:20.841Z,1021.46
2019-06-27T06:57:20.816Z,1021.50
2019-06-27T06:58:20.839Z,1021.50
2019-06-27T06:59:20.761Z,1021.54
2019-06-27T07:00:20.741Z,1021.54
2019-06-27T07:01:20.757Z,1021.48
2019-06-27T07:02:20.686Z,1021.57
2019-06-27T07:03:20.656Z,1021.52
2019-06-27T07:04:20.641Z,1021.52
2019-06-27T07:05:20.625Z,1021.52
2019-06-27T07:06:20.625Z,1021.62
2019-06-27T07:07:20.559Z,1021.61
2019-06-27T07:08:20.531Z,1021.56
2019-06-27T07:09:20.509Z,1021.59
2019-06-27T07:10:20.483Z,1021.79
2019-06-27T07:11:20.500Z,1021.60
2019-06-27T07:12:20.423Z,1021.51
2019-06-27T07:13:20.403Z,1021.60
2019-06-27T07:14:20.370Z,1021.58
2019-06-27T07:15:21.017Z,1021.65
2019-06-27T07:17:20.336Z,1021.68
2019-06-27T07:18:20.287Z,1021.59
2019-06-27T07:19:20.287Z,1021.53
2019-06-27T07:20:20.215Z,1021.74
2019-06-27T07:21:20.194Z,1021.72
2019-06-27T07:22:20.217Z,1021.70
2019-06-27T07:23:20.148Z,1021.62
2019-06-27T07:24:20.116Z,1021.63
2019-06-27T07:25:20.129Z,1021.60
2019-06-27T07:26:22.398Z,1021.61
2019-06-27T07:27:20.088Z,1021.66
2019-06-27T07:28:20.023Z,1021.64
2019-06-27T07:29:20.059Z,1021.63
2019-06-27T07:30:20.005Z,1021.66
2019-06-27T07:31:19.929Z,1021.57
2019-06-27T07:32:19.908Z,1021.61
2019-06-27T07:33:19.875Z,1021.68
2019-06-27T07:34:19.895Z,1021.60
2019-06-27T07:35:19.828Z,1021.76
2019-06-27T07:36:19.799Z,1021.69
2019-06-27T07:37:19.813Z,1021.68
2019-06-27T07:38:19.791Z,1021.73
2019-06-27T07:39:19.725Z,1021.74
2019-06-27T07:40:19.742Z,1021.74
2019-06-27T07:41:19.670Z,1021.75
2019-06-27T07:42:19.658Z,1021.72
2019-06-27T07:43:19.618Z,1021.75
2019-06-27T07:44:20.428Z,1021.72
2019-06-27T07:45:19.569Z,1021.70
2019-06-27T07:46:25.029Z,1021.68
2019-06-27T07:47:19.525Z,1021.65
2019-06-27T07:48:19.536Z,1021.70
2019-06-27T07:49:19.463Z,1021.70
2019-06-27T07:50:19.483Z,1021.78
2019-06-27T07:51:19.416Z,1021.68
2019-06-27T07:52:19.394Z,1021.79
2019-06-27T07:53:19.359Z,1021.69
2019-06-27T07:54:19.344Z,1021.73
2019-06-27T07:55:19.348Z,1021.69
2019-06-27T07:56:19.288Z,1021.66
2019-06-27T07:57:19.277Z,1021.66
2019-06-27T07:58:19.231Z,1021.83
2019-06-27T07:59:19.204Z,1021.63
2019-06-27T08:00:19.259Z,1021.71
2019-06-27T08:01:34.131Z,1021.72
2019-06-27T08:02:19.130Z,1021.61
2019-06-27T08:03:19.109Z,1021.67
2019-06-27T08:04:19.085Z,1021.66
2019-06-27T08:05:19.103Z,1021.63
2019-06-27T08:06:19.072Z,1021.66
2019-06-27T08:07:21.304Z,1021.65
2019-06-27T08:08:19.028Z,1021.68
2019-06-27T08:09:18.956Z,1021.70
2019-06-27T08:10:18.936Z,1021.70
2019-06-27T08:11:18.908Z,1021.69
2019-06-27T08:12:18.875Z,1021.61
2019-06-27T08:13:18.889Z,1021.78
2019-06-27T08:14:18.837Z,1021.87
2019-06-27T08:15:18.801Z,1021.82
2019-06-27T08:16:18.837Z,1021.72
2019-06-27T08:17:18.745Z,1021.66
2019-06-27T08:18:18.719Z,1021.63
2019-06-27T08:19:18.701Z,1021.60
2019-06-27T08:20:18.668Z,1021.65
2019-06-27T08:21:18.698Z,1021.65
2019-06-27T08:22:18.640Z,1021.61
2019-06-27T08:23:18.612Z,1021.62
2019-06-27T08:24:18.594Z,1021.62
2019-06-27T08:25:18.641Z,1021.67
2019-06-27T08:26:18.563Z,1021.60
2019-06-27T08:27:18.538Z,1021.74
2019-06-27T08:28:18.472Z,1021.61
2019-06-27T08:29:18.454Z,1021.63
2019-06-27T08:30:18.552Z,1021.61
2019-06-27T08:31:18.396Z,1021.58
2019-06-27T08:32:18.367Z,1021.62
2019-06-27T08:33:18.415Z,1021.62
2019-06-27T08:34:18.314Z,1021.57
2019-06-27T08:35:18.293Z,1021.58
2019-06-27T08:36:18.269Z,1021.65
2019-06-27T08:37:18.238Z,1021.59
2019-06-27T08:38:18.276Z,1021.54
2019-06-27T08:39:18.189Z,1021.52
2019-06-27T08:40:19.039Z,1021.50
2019-06-27T08:41:18.159Z,1021.51
2019-06-27T08:42:18.161Z,1021.53
2019-06-27T08:43:18.093Z,1021.52
2019-06-27T08:44:18.064Z,1021.48
2019-06-27T08:45:18.085Z,1021.47
2019-06-27T08:46:18.026Z,1021.50
2019-06-27T08:47:17.989Z,1021.49
2019-06-27T08:48:17.963Z,1021.52
2019-06-27T08:49:18.538Z,1021.48
2019-06-27T08:50:18.547Z,1021.48
2019-06-27T08:51:17.897Z,1021.51
2019-06-27T08:52:17.875Z,1021.45
2019-06-27T08:53:17.895Z,1021.45
2019-06-27T08:54:17.813Z,1021.42
2019-06-27T08:55:18.542Z,1021.37
2019-06-27T08:56:17.791Z,1021.44
2019-06-27T08:57:17.743Z,1021.47
2019-06-27T08:58:18.540Z,1021.41
2019-06-27T08:59:17.700Z,1021.51
2019-06-27T09:00:17.675Z,1021.41
2019-06-27T09:01:17.645Z,1021.49
2019-06-27T09:02:17.665Z,1021.38
2019-06-27T09:03:17.593Z,1021.37
2019-06-27T09:04:17.572Z,1021.53
2019-06-27T09:05:17.547Z,1021.47
2019-06-27T09:06:20.899Z,1021.45
2019-06-27T09:07:17.547Z,1021.40
2019-06-27T09:08:17.481Z,1021.39
2019-06-27T09:09:17.491Z,1021.44
2019-06-27T09:10:17.428Z,1021.57
2019-06-27T09:11:17.403Z,1021.44
2019-06-27T09:12:17.402Z,1021.45
2019-06-27T09:13:17.351Z,1021.48
2019-06-27T09:14:17.372Z,1021.36
2019-06-27T09:15:17.303Z,1021.35
2019-06-27T09:16:17.321Z,1021.35
2019-06-27T09:17:17.263Z,1021.34
2019-06-27T09:18:17.237Z,1021.31
2019-06-27T09:19:17.213Z,1021.30
2019-06-27T09:20:17.232Z,1021.35
2019-06-27T09:21:17.155Z,1021.32
2019-06-27T09:22:17.176Z,1021.36
2019-06-27T09:23:17.107Z,1021.31
2019-06-27T09:24:17.131Z,1021.32
2019-06-27T09:25:17.056Z,1021.31
2019-06-27T09:26:17.077Z,1021.30
2019-06-27T09:27:17.011Z,1021.33
2019-06-27T09:28:16.985Z,1021.27
2019-06-27T09:29:17.008Z,1021.30
2019-06-27T09:30:16.940Z,1021.29
2019-06-27T09:31:16.919Z,1021.36
2019-06-27T09:32:25.463Z,1021.32
2019-06-27T09:33:16.896Z,1021.32
2019-06-27T09:34:16.889Z,1021.29
2019-06-27T09:35:16.822Z,1021.29
2019-06-27T09:36:16.842Z,1021.21
2019-06-27T09:37:16.771Z,1021.28
2019-06-27T09:38:16.798Z,1021.28
2019-06-27T09:39:16.724Z,1021.35
2019-06-27T09:40:16.697Z,1021.35
2019-06-27T09:41:16.705Z,1021.30
2019-06-27T09:42:16.704Z,1021.37
2019-06-27T09:43:16.628Z,1021.38
2019-06-27T09:44:16.641Z,1021.36
2019-06-27T09:45:16.583Z,1021.37
2019-06-27T09:46:16.626Z,1021.35
2019-06-27T09:47:16.532Z,1021.33
2019-06-27T09:48:16.511Z,1021.35
2019-06-27T09:49:16.488Z,1021.29
2019-06-27T09:50:16.460Z,1021.30
2019-06-27T09:51:16.482Z,1021.36
2019-06-27T09:52:16.420Z,1021.36
2019-06-27T09:53:16.392Z,1021.31
2019-06-27T09:54:16.365Z,1021.30
2019-06-27T09:55:16.385Z,1021.25
2019-06-27T09:56:16.322Z,1021.24
2019-06-27T09:57:16.304Z,1021.26
2019-06-27T09:58:16.274Z,1021.21
2019-06-27T09:59:16.357Z,1021.25
2019-06-27T10:00:16.270Z,1021.27
2019-06-27T10:01:16.206Z,1021.29
2019-06-27T10:02:16.240Z,1021.30
2019-06-27T10:03:16.158Z,1021.37
2019-06-27T10:04:16.133Z,1021.25
2019-06-27T10:05:16.118Z,1021.35
2019-06-27T10:06:16.131Z,1021.33
2019-06-27T10:07:16.067Z,1021.22
2019-06-27T10:08:16.040Z,1021.27
2019-06-27T10:09:16.077Z,1021.23
2019-06-27T10:10:15.996Z,1021.17
2019-06-27T10:11:16.633Z,1021.29
2019-06-27T10:12:15.947Z,1021.27
2019-06-27T10:13:15.927Z,1021.38
2019-06-27T10:14:15.942Z,1021.27
2019-06-27T10:15:15.882Z,1021.28
2019-06-27T10:16:15.895Z,1021.19
2019-06-27T10:17:15.835Z,1021.18
2019-06-27T10:18:15.808Z,1021.32
2019-06-27T10:19:15.783Z,1021.28
2019-06-27T10:20:15.757Z,1021.32
2019-06-27T10:21:15.852Z,1021.24
2019-06-27T10:22:15.724Z,1021.20
2019-06-27T10:23:15.703Z,1021.21
2019-06-27T10:24:15.665Z,1021.27
2019-06-27T10:25:15.649Z,1021.28
2019-06-27T10:26:15.667Z,1021.26
2019-06-27T10:27:15.597Z,1021.17
2019-06-27T10:28:15.573Z,1021.22
2019-06-27T10:29:15.591Z,1021.17
2019-06-27T10:30:15.614Z,1021.27
2019-06-27T10:31:15.508Z,1021.23
2019-06-27T10:32:15.485Z,1021.29
2019-06-27T10:33:15.493Z,1021.39
2019-06-27T10:34:15.436Z,1021.10
2019-06-27T10:35:15.410Z,1021.08
2019-06-27T10:36:15.435Z,1021.08
2019-06-27T10:37:15.361Z,1021.11
2019-06-27T10:38:15.393Z,1021.26
2019-06-27T10:39:15.322Z,1021.17
2019-06-27T10:40:22.567Z,1021.11
2019-06-27T10:41:15.269Z,1021.14
2019-06-27T10:42:15.252Z,1021.19
2019-06-27T10:43:15.269Z,1021.22
2019-06-27T10:44:15.205Z,1021.13
2019-06-27T10:45:15.202Z,1021.10
2019-06-27T10:46:15.230Z,1021.07
2019-06-27T10:47:15.133Z,1021.11
2019-06-27T10:48:15.111Z,1021.09
2019-06-27T10:49:15.097Z,1021.08
2019-06-27T10:50:15.126Z,1021.11
2019-06-27T10:51:15.093Z,1021.08
2019-06-27T10:52:15.017Z,1021.05
2019-06-27T10:53:14.999Z,1021.10
2019-06-27T10:54:14.971Z,1021.03
2019-06-27T10:55:14.991Z,1021.08
2019-06-27T10:56:14.949Z,1021.06
2019-06-27T10:57:15.645Z,1021.06
2019-06-27T10:58:14.880Z,1021.17
2019-06-27T10:59:14.863Z,1021.07
2019-06-27T11:00:14.888Z,1021.10
2019-06-27T11:01:14.823Z,1021.14
2019-06-27T11:02:14.792Z,1021.05
2019-06-27T11:03:16.415Z,1021.11
2019-06-27T11:04:14.772Z,1021.11
2019-06-27T11:05:14.775Z,1021.04
2019-06-27T11:06:14.701Z,1021.03
2019-06-27T11:07:14.772Z,1021.00
2019-06-27T11:08:14.654Z,1020.99
2019-06-27T11:09:14.636Z,1020.97
2019-06-27T11:10:14.655Z,1020.91
2019-06-27T11:11:14.589Z,1020.94
2019-06-27T11:12:14.563Z,1020.93
2019-06-27T11:13:14.547Z,1021.09
2019-06-27T11:14:14.518Z,1021.05
2019-06-27T11:15:14.585Z,1021.05
2019-06-27T11:16:14.478Z,1020.98
2019-06-27T11:17:14.487Z,1021.00
2019-06-27T11:18:14.472Z,1021.06
2019-06-27T11:19:14.411Z,1020.91
2019-06-27T11:20:15.485Z,1020.96
2019-06-27T11:21:14.402Z,1020.96
2019-06-27T11:22:14.348Z,1020.94
2019-06-27T11:23:14.330Z,1020.94
2019-06-27T11:24:14.338Z,1021.01
2019-06-27T11:25:14.296Z,1020.97
2019-06-27T11:26:14.249Z,1020.87
2019-06-27T11:27:15.081Z,1020.92
2019-06-27T11:28:14.222Z,1020.95
2019-06-27T11:29:14.233Z,1021.04
2019-06-27T11:30:14.166Z,1020.85
2019-06-27T11:31:14.180Z,1020.82
2019-06-27T11:32:14.709Z,1020.87
2019-06-27T11:33:14.149Z,1020.87
2019-06-27T11:34:14.078Z,1020.91
2019-06-27T11:35:14.042Z,1020.79
2019-06-27T11:36:14.027Z,1020.84
2019-06-27T11:37:14.002Z,1020.83
2019-06-27T11:38:14.026Z,1020.81
2019-06-27T11:39:13.956Z,1020.86
2019-06-27T11:40:13.974Z,1020.78
2019-06-27T11:41:13.921Z,1020.83
2019-06-27T11:42:13.887Z,1020.83
2019-06-27T11:43:13.872Z,1020.85
2019-06-27T11:44:13.885Z,1020.80
2019-06-27T11:45:13.828Z,1020.81
2019-06-27T11:46:13.842Z,1020.73
2019-06-27T11:47:13.782Z,1020.73
2019-06-27T11:48:13.798Z,1020.76
2019-06-27T11:49:13.731Z,1020.70
2019-06-27T11:50:13.713Z,1020.69
2019-06-27T11:51:13.693Z,1020.75
2019-06-27T11:52:13.703Z,1020.67
2019-06-27T11:53:13.648Z,1020.64
2019-06-27T11:54:13.625Z,1020.65
2019-06-27T11:55:13.604Z,1020.69
2019-06-27T11:56:13.726Z,1020.60
2019-06-27T11:57:13.555Z,1020.62
2019-06-27T11:58:13.585Z,1020.56
2019-06-27T11:59:13.539Z,1020.59
2019-06-27T12:00:13.497Z,1020.58
2019-06-27T12:01:13.511Z,1020.60
2019-06-27T12:02:13.452Z,1020.59
2019-06-27T12:03:13.478Z,1020.48
2019-06-27T12:04:13.410Z,1020.60
2019-06-27T12:05:13.431Z,1020.61
2019-06-27T12:06:13.376Z,1020.47